Time;durP1;ratioP1;P1;durP2;ratioP2;P2;SDS_P1;SDS_P2;PMS_P1;PMS_P2;Temp;Humidity;BMP_temperature;BMP_pressure;BME280_temperature;BME280_humidity;BME280_pressure;Samples;Min_cycle;Max_cycle;Signal;HPM_P1;HPM_P2
2024/03/04 00:03:28;;;;;;;2.60;1.45;;;9.50;99.90;;;;;;10478113;28;20052;-56
2024/03/04 00:08:30;;;;;;;3.97;0.95;;;9.40;99.90;;;;;;10480163;28;20048;-59
2024/03/04 00:13:35;;;;;;;2.35;0.80;;;9.40;99.90;;;;;;10471987;28;20056;-57
2024/03/04 00:18:37;;;;;;;3.97;0.80;;;9.40;99.90;;;;;;10477362;28;20056;-59
2024/03/04 00:23:39;;;;;;;3.28;0.70;;;10.40;99.90;;;;;;10480982;28;20056;-58
2024/03/04 00:28:44;;;;;;;5.00;0.77;;;9.70;99.90;;;;;;10484978;28;20052;-57
2024/03/04 00:33:46;;;;;;;10.48;0.75;;;10.30;99.90;;;;;;10494476;28;20158;-58
2024/03/04 00:38:51;;;;;;;6.13;0.93;;;9.30;99.90;;;;;;10493228;28;20056;-58
2024/03/04 00:43:55;;;;;;;5.25;0.77;;;9.80;99.90;;;;;;10487358;28;20588;-59
2024/03/04 00:48:57;;;;;;;4.32;0.95;;;9.80;99.90;;;;;;10484619;28;20915;-56
2024/03/04 00:53:59;;;;;;;7.05;0.88;;;9.60;99.90;;;;;;10493000;28;20735;-58
2024/03/04 00:59:04;;;;;;;1.33;0.40;;;9.20;99.90;;;;;;10488259;28;20052;-58
2024/03/04 01:04:06;;;;;;;4.80;1.25;;;10.80;99.90;;;;;;10489385;28;20051;-59
2024/03/04 01:09:10;;;;;;;4.47;0.73;;;10.10;99.90;;;;;;10486670;28;20525;-59
2024/03/04 01:14:14;;;;;;;0.93;0.60;;;10.70;99.90;;;;;;10488655;28;20648;-58
2024/03/04 01:19:16;;;;;;;7.22;0.75;;;10.80;99.90;;;;;;10488991;28;20058;-59
2024/03/04 01:24:18;;;;;;;4.27;0.63;;;11.00;99.90;;;;;;10480624;28;20053;-57
2024/03/04 01:29:22;;;;;;;6.60;1.67;;;10.20;99.90;;;;;;10483381;28;20051;-59
2024/03/04 01:34:24;;;;;;;1.90;0.80;;;10.90;99.90;;;;;;10483733;28;20078;-58
2024/03/04 01:39:26;;;;;;;1.65;0.40;;;11.90;99.90;;;;;;10477690;28;20052;-58
2024/03/04 01:44:33;;;;;;;0.68;0.45;;;11.30;99.90;;;;;;10483749;28;20462;-58
2024/03/04 01:49:36;;;;;;;2.05;0.80;;;11.00;99.90;;;;;;10481645;28;20071;-55
2024/03/04 01:54:40;;;;;;;6.03;0.68;;;11.10;99.90;;;;;;10485638;28;20052;-58
2024/03/04 01:59:44;;;;;;;2.95;0.85;;;12.30;99.90;;;;;;10480381;28;20052;-59
2024/03/04 02:04:47;;;;;;;5.25;1.25;;;12.70;99.90;;;;;;10486110;28;20051;-59
2024/03/04 02:09:50;;;;;;;3.92;1.08;;;12.40;99.90;;;;;;10482488;28;20114;-58
2024/03/04 02:14:53;;;;;;;2.17;0.55;;;11.80;99.90;;;;;;10489424;28;20063;-59
2024/03/04 02:19:59;;;;;;;5.70;0.82;;;12.00;99.90;;;;;;10480451;28;20047;-57
2024/03/04 02:25:04;;;;;;;4.22;0.80;;;12.20;99.90;;;;;;10481553;28;20056;-58
2024/03/04 02:30:08;;;;;;;1.52;0.60;;;12.90;99.90;;;;;;10485477;28;20660;-59
2024/03/04 02:35:10;;;;;;;1.80;1.08;;;13.00;99.90;;;;;;10484000;28;20056;-58
2024/03/04 02:40:14;;;;;;;3.10;1.03;;;13.60;99.90;;;;;;10484290;28;20086;-59
2024/03/04 02:45:16;;;;;;;5.25;0.80;;;14.10;99.90;;;;;;10480732;28;20053;-59
2024/03/04 02:50:18;;;;;;;6.23;1.20;;;14.20;99.90;;;;;;10487320;28;20954;-59
2024/03/04 02:55:21;;;;;;;6.03;0.93;;;13.40;99.90;;;;;;10485959;28;20115;-58
2024/03/04 03:00:23;;;;;;;2.72;0.82;;;13.80;99.90;;;;;;10479459;28;20811;-58
2024/03/04 03:05:25;;;;;;;5.00;1.07;;;14.60;99.90;;;;;;10488556;28;20191;-57
2024/03/04 03:10:29;;;;;;;4.47;0.53;;;14.70;99.90;;;;;;10487619;28;20141;-58
2024/03/04 03:15:30;;;;;;;7.05;1.10;;;14.80;99.90;;;;;;10479787;28;20059;-55
2024/03/04 03:20:32;;;;;;;1.80;0.80;;;14.60;99.90;;;;;;10479719;28;20081;-59
2024/03/04 03:25:36;;;;;;;2.87;0.80;;;14.30;99.90;;;;;;10476820;28;20627;-59
2024/03/04 03:30:38;;;;;;;3.00;0.47;;;14.60;99.90;;;;;;10483091;28;20478;-57
2024/03/04 03:35:40;;;;;;;2.72;0.88;;;14.80;99.90;;;;;;10487788;28;20071;-57
2024/03/04 03:40:45;;;;;;;2.67;0.90;;;14.70;99.90;;;;;;10473418;28;20510;-59
2024/03/04 03:45:47;;;;;;;2.70;0.90;;;15.00;99.90;;;;;;10483192;28;20157;-59
2024/03/04 03:50:49;;;;;;;1.42;0.60;;;14.80;99.90;;;;;;10489417;28;20059;-60
2024/03/04 03:55:53;;;;;;;8.20;1.90;;;15.00;99.90;;;;;;10481444;28;20040;-58
2024/03/04 04:15:31;;;;;;;5.80;1.02;;;15.40;99.90;;;;;;10546549;27;20816;-56
2024/03/04 04:20:33;;;;;;;4.35;1.30;;;15.10;99.90;;;;;;10562573;28;20051;-57
2024/03/04 04:25:35;;;;;;;5.50;0.80;;;15.20;99.90;;;;;;10554508;28;20059;-64
2024/03/04 04:30:40;;;;;;;2.97;0.75;;;15.10;99.90;;;;;;10553401;27;20044;-59
2024/03/04 04:35:42;;;;;;;3.75;0.63;;;15.10;99.90;;;;;;10558395;28;20196;-59
2024/03/04 04:40:44;;;;;;;7.70;1.13;;;15.20;99.90;;;;;;10560851;28;20673;-57
2024/03/04 04:45:49;;;;;;;3.25;0.80;;;15.00;99.90;;;;;;10563175;28;20047;-58
2024/03/04 04:50:50;;;;;;;4.55;0.77;;;14.70;99.90;;;;;;10562988;28;20498;-59
2024/03/04 04:55:52;;;;;;;3.27;0.60;;;14.50;99.90;;;;;;10554702;27;20354;-58
2024/03/04 05:00:56;;;;;;;2.43;0.63;;;14.60;99.90;;;;;;10554427;27;20051;-60
2024/03/04 05:06:01;;;;;;;1.08;0.60;;;14.60;99.90;;;;;;10553790;28;20048;-55
2024/03/04 05:11:09;;;;;;;4.53;0.73;;;14.50;99.90;;;;;;10551055;28;20125;-57
2024/03/04 05:16:12;;;;;;;7.82;0.90;;;14.60;99.90;;;;;;10558489;28;20108;-55
2024/03/04 05:21:14;;;;;;;3.03;0.60;;;14.70;99.90;;;;;;10553067;28;20358;-59
2024/03/04 05:26:16;;;;;;;2.80;0.70;;;15.10;99.90;;;;;;10533904;28;20098;-58
2024/03/04 05:31:20;;;;;;;2.80;0.77;;;15.10;99.90;;;;;;10524896;28;20145;-59
2024/03/04 05:36:22;;;;;;;2.90;0.73;;;15.40;99.90;;;;;;10529135;28;20081;-62
2024/03/04 05:41:24;;;;;;;1.92;0.70;;;15.40;99.90;;;;;;10522011;28;20052;-58
2024/03/04 05:46:28;;;;;;;6.18;0.90;;;15.50;99.90;;;;;;10533666;28;20056;-59
2024/03/04 05:51:30;;;;;;;3.90;0.80;;;15.60;99.90;;;;;;10529468;28;20105;-58
2024/03/04 05:56:32;;;;;;;1.30;0.60;;;15.70;99.90;;;;;;10515476;28;20140;-57
2024/03/04 06:01:35;;;;;;;3.50;1.13;;;15.70;99.90;;;;;;10521914;28;20048;-58
2024/03/04 06:06:38;;;;;;;1.95;0.60;;;15.80;99.90;;;;;;10518200;28;20561;-59
2024/03/04 06:11:41;;;;;;;3.67;0.90;;;15.90;99.90;;;;;;10513080;28;20071;-59
2024/03/04 06:16:45;;;;;;;2.70;0.73;;;16.00;99.90;;;;;;10519901;28;20048;-58
2024/03/04 06:21:47;;;;;;;3.70;0.70;;;16.20;99.90;;;;;;10513584;28;20051;-59
2024/03/04 06:26:49;;;;;;;2.97;0.70;;;16.20;99.90;;;;;;10512683;28;20103;-59
2024/03/04 06:31:54;;;;;;;8.77;0.80;;;16.20;99.90;;;;;;10516939;28;20961;-58
2024/03/04 06:36:57;;;;;;;2.55;0.95;;;16.30;99.90;;;;;;10505308;28;20055;-60
2024/03/04 06:41:59;;;;;;;2.75;0.82;;;16.10;99.90;;;;;;10512991;28;20514;-59
2024/03/04 06:47:03;;;;;;;3.17;0.85;;;16.20;99.90;;;;;;10515068;28;20052;-59
2024/03/04 06:52:05;;;;;;;6.53;1.40;;;16.10;99.90;;;;;;10512605;28;20911;-59
2024/03/04 06:57:07;;;;;;;1.90;0.60;;;16.10;99.90;;;;;;10507079;28;20048;-58
2024/03/04 07:02:10;;;;;;;2.87;1.00;;;16.30;99.90;;;;;;10506856;28;20529;-59
2024/03/04 07:07:12;;;;;;;2.95;0.98;;;16.40;99.90;;;;;;10515192;28;20050;-59
2024/03/04 07:12:14;;;;;;;3.17;1.17;;;16.40;99.90;;;;;;10512773;28;20456;-60
2024/03/04 07:17:17;;;;;;;3.50;1.20;;;16.40;99.90;;;;;;10516711;28;21047;-59
2024/03/04 07:22:19;;;;;;;7.25;1.45;;;16.50;99.90;;;;;;10510199;28;20458;-57
2024/03/04 07:27:21;;;;;;;2.80;1.20;;;16.30;99.90;;;;;;10507038;28;20121;-59
2024/03/04 07:32:25;;;;;;;3.67;1.70;;;16.40;99.90;;;;;;10512073;28;20082;-59
2024/03/04 07:37:27;;;;;;;3.17;1.70;;;16.50;99.90;;;;;;10516395;28;20055;-59
2024/03/04 07:42:29;;;;;;;8.27;2.38;;;16.50;99.90;;;;;;10515172;28;20090;-59
2024/03/04 07:47:32;;;;;;;8.10;2.65;;;16.60;99.90;;;;;;10510267;28;20073;-58
2024/03/04 07:52:34;;;;;;;6.00;2.67;;;16.60;99.90;;;;;;10510893;28;20170;-59
2024/03/04 07:57:36;;;;;;;3.93;2.00;;;16.60;99.90;;;;;;10501608;28;20143;-61
2024/03/04 08:02:42;;;;;;;5.35;1.83;;;16.60;99.90;;;;;;10513936;28;20461;-60
2024/03/04 08:07:44;;;;;;;2.58;1.90;;;16.50;99.90;;;;;;10511737;28;20048;-61
2024/03/04 08:12:46;;;;;;;4.45;2.63;;;16.20;99.90;;;;;;10503528;28;20604;-60
2024/03/04 08:17:49;;;;;;;4.65;2.60;;;16.20;99.90;;;;;;10511588;28;20163;-60
2024/03/04 08:22:52;;;;;;;4.60;2.47;;;14.70;99.90;;;;;;10508182;28;20056;-59
2024/03/04 08:27:54;;;;;;;5.32;2.20;;;14.10;99.90;;;;;;10507528;28;20066;-59
2024/03/04 08:32:57;;;;;;;7.67;2.57;;;13.80;99.90;;;;;;10507744;28;20059;-58
2024/03/04 08:37:59;;;;;;;4.25;3.17;;;13.60;99.90;;;;;;10502798;28;20484;-60
2024/03/04 08:43:01;;;;;;;7.03;2.40;;;13.60;99.90;;;;;;10506315;28;20130;-59
2024/03/04 08:48:08;;;;;;;11.82;3.67;;;14.00;99.90;;;;;;10511762;28;20109;-59
2024/03/04 08:53:10;;;;;;;6.25;2.45;;;15.60;99.90;;;;;;10512186;28;20492;-58
2024/03/04 08:58:12;;;;;;;5.57;2.50;;;16.00;99.90;;;;;;10518141;28;20051;-59
2024/03/04 09:03:15;;;;;;;5.07;3.03;;;16.10;99.90;;;;;;10534390;28;20725;-59
2024/03/04 09:08:18;;;;;;;5.68;2.75;;;16.30;99.90;;;;;;10524315;28;20075;-59
2024/03/04 09:13:20;;;;;;;14.77;3.78;;;16.30;99.90;;;;;;10515534;28;20082;-59
2024/03/04 09:18:23;;;;;;;8.45;3.10;;;16.40;99.90;;;;;;10523239;28;20050;-56
2024/03/04 09:23:25;;;;;;;9.20;3.75;;;16.40;99.90;;;;;;10519418;28;20159;-59
2024/03/04 09:28:28;;;;;;;7.47;3.27;;;16.50;99.90;;;;;;10512882;28;20051;-59
2024/03/04 09:33:31;;;;;;;12.07;3.72;;;16.60;99.90;;;;;;10518110;28;20505;-58
2024/03/04 09:38:33;;;;;;;6.88;4.15;;;16.60;99.90;;;;;;10519618;28;20610;-59
2024/03/04 09:43:38;;;;;;;9.02;4.10;;;16.40;99.90;;;;;;10513171;28;20048;-60
2024/03/04 09:48:44;;;;;;;14.77;4.18;;;16.40;99.90;;;;;;10516412;28;22496;-60
2024/03/04 09:53:47;;;;;;;8.45;4.10;;;16.60;99.90;;;;;;10512700;28;20043;-58
2024/03/04 09:58:49;;;;;;;9.88;4.18;;;16.40;99.90;;;;;;10515499;28;20044;-59
2024/03/04 10:03:52;;;;;;;9.73;4.50;;;15.00;99.90;;;;;;10504849;28;20135;-59
2024/03/04 10:08:54;;;;;;;11.80;4.00;;;15.70;99.90;;;;;;10514173;28;21301;-59
2024/03/04 10:13:57;;;;;;;8.32;4.32;;;15.60;99.90;;;;;;10513831;28;20078;-58
2024/03/04 10:19:03;;;;;;;7.20;4.10;;;14.20;99.90;;;;;;10515142;28;20052;-58
2024/03/04 10:24:08;;;;;;;4.95;3.85;;;14.60;99.90;;;;;;10512823;28;20063;-58
2024/03/04 10:29:12;;;;;;;6.65;4.10;;;14.80;99.90;;;;;;10514091;28;20128;-59
2024/03/04 10:34:16;;;;;;;6.53;3.30;;;14.90;99.90;;;;;;10513155;28;20487;-57
2024/03/04 10:39:18;;;;;;;5.90;3.97;;;15.20;99.90;;;;;;10511029;28;20044;-59
2024/03/04 10:44:27;;;;;;;11.53;4.70;;;14.60;99.90;;;;;;10511022;28;20077;-59
2024/03/04 10:49:30;;;;;;;11.02;3.90;;;14.30;99.90;;;;;;10509141;28;20504;-60
2024/03/04 10:54:34;;;;;;;7.18;3.30;;;14.30;99.90;;;;;;10510921;28;20102;-58
2024/03/04 10:59:37;;;;;;;7.22;3.88;;;15.30;99.90;;;;;;10509554;28;20051;-57
2024/03/04 11:04:41;;;;;;;10.55;4.20;;;14.60;99.90;;;;;;10510088;28;20059;-59
2024/03/04 11:09:48;;;;;;;7.43;3.97;;;13.80;99.90;;;;;;10513965;28;20051;-59
2024/03/04 11:15:00;;;;;;;11.05;4.53;;;15.30;99.90;;;;;;10512031;28;20512;-59
2024/03/04 11:20:04;;;;;;;9.48;4.15;;;15.50;99.90;;;;;;10520419;28;21366;-57
2024/03/04 11:25:08;;;;;;;8.82;4.88;;;13.90;99.90;;;;;;10514300;28;20376;-60
2024/03/04 11:30:11;;;;;;;11.23;5.25;;;13.90;99.90;;;;;;10516341;28;20093;-59
2024/03/04 11:35:26;;;;;;;6.68;4.65;;;13.70;99.90;;;;;;10513454;28;20136;-60
2024/03/04 11:40:28;;;;;;;7.07;4.38;;;13.50;99.90;;;;;;10506263;28;20056;-59
2024/03/04 11:45:33;;;;;;;7.67;4.10;;;13.50;99.90;;;;;;10511142;28;20190;-60
2024/03/04 11:50:47;;;;;;;9.90;4.50;;;13.70;99.90;;;;;;10511247;28;21253;-58
2024/03/04 11:55:49;;;;;;;13.30;4.45;;;12.90;99.90;;;;;;10510791;28;20063;-58
2024/03/04 12:00:52;;;;;;;9.75;5.05;;;12.90;99.90;;;;;;10512653;28;20071;-60
2024/03/04 12:05:56;;;;;;;10.13;4.75;;;12.70;99.90;;;;;;10512491;28;20040;-58
2024/03/04 12:10:58;;;;;;;9.60;5.60;;;12.80;99.90;;;;;;10508492;28;20048;-59
2024/03/04 12:16:00;;;;;;;7.60;5.07;;;12.90;99.90;;;;;;10509057;28;20139;-60
2024/03/04 12:21:05;;;;;;;10.00;6.10;;;13.20;99.90;;;;;;10503293;28;20051;-59
2024/03/04 12:26:12;;;;;;;12.05;6.40;;;13.80;99.90;;;;;;10506146;28;20178;-58
2024/03/04 12:31:14;;;;;;;9.48;5.18;;;13.70;99.90;;;;;;10509610;28;20058;-59
2024/03/04 12:36:19;;;;;;;20.58;5.35;;;13.60;99.90;;;;;;10518663;28;20044;-59
2024/03/04 12:41:21;;;;;;;11.10;4.90;;;13.50;99.90;;;;;;10519888;28;20740;-59
2024/03/04 12:46:24;;;;;;;10.35;4.72;;;13.90;99.90;;;;;;10512540;28;20048;-58
2024/03/04 12:51:27;;;;;;;7.63;4.57;;;14.30;99.90;;;;;;10519657;28;20060;-59
2024/03/04 12:56:29;;;;;;;5.57;3.38;;;14.30;99.90;;;;;;10519011;28;20064;-57
2024/03/04 13:01:34;;;;;;;12.00;3.67;;;14.50;99.90;;;;;;10513527;28;20367;-59
2024/03/04 13:06:38;;;;;;;6.55;3.00;;;15.10;99.90;;;;;;10518940;28;20497;-59
2024/03/04 13:11:39;;;;;;;3.65;2.40;;;15.50;99.90;;;;;;10521589;28;20112;-57
2024/03/04 13:16:42;;;;;;;4.33;3.00;;;16.20;99.90;;;;;;10518965;28;20059;-59
2024/03/04 13:21:45;;;;;;;4.20;2.50;;;16.40;99.90;;;;;;10501531;28;20082;-59
2024/03/04 13:26:47;;;;;;;3.20;2.45;;;16.80;99.90;;;;;;10514522;28;20059;-59
2024/03/04 13:31:49;;;;;;;6.00;2.93;;;16.30;97.10;;;;;;10512717;28;20051;-58
2024/03/04 13:36:52;;;;;;;5.15;3.20;;;16.60;98.40;;;;;;10516231;28;20082;-59
2024/03/04 13:41:55;;;;;;;4.25;2.90;;;17.50;99.90;;;;;;10517414;28;20055;-58
2024/03/04 13:46:57;;;;;;;6.63;3.03;;;17.10;92.10;;;;;;10512808;28;20525;-60
2024/03/04 13:52:01;;;;;;;4.47;2.17;;;17.10;93.20;;;;;;10514153;28;21328;-58
2024/03/04 13:57:04;;;;;;;7.55;2.42;;;17.90;99.90;;;;;;10509912;28;20055;-59
2024/03/04 14:02:07;;;;;;;3.83;2.20;;;18.50;99.90;;;;;;10517259;28;20047;-60
2024/03/04 14:07:10;;;;;;;5.00;2.50;;;19.10;86.20;;;;;;10513309;28;20060;-58
2024/03/04 14:12:14;;;;;;;6.10;2.70;;;19.30;99.90;;;;;;10504443;28;20531;-58
2024/03/04 14:17:16;;;;;;;2.08;1.70;;;19.60;99.90;;;;;;10507248;28;20135;-62
2024/03/04 14:22:20;;;;;;;10.48;1.75;;;20.00;99.90;;;;;;10510938;28;20058;-58
2024/03/04 14:27:22;;;;;;;3.58;1.80;;;20.60;99.90;;;;;;10512765;28;20035;-58
2024/03/04 14:32:24;;;;;;;2.05;1.63;;;20.70;97.00;;;;;;10521621;28;20063;-56
2024/03/04 14:37:27;;;;;;;3.30;1.85;;;20.90;99.90;;;;;;10520277;28;20047;-61
2024/03/04 14:42:29;;;;;;;2.97;1.98;;;21.30;94.00;;;;;;10514835;28;20818;-56
2024/03/04 14:47:33;;;;;;;2.80;1.58;;;21.70;99.90;;;;;;10517189;28;20040;-57
2024/03/04 14:52:36;;;;;;;4.57;1.90;;;22.10;99.90;;;;;;10515144;28;20479;-57
2024/03/04 14:57:38;;;;;;;5.63;2.15;;;22.30;99.90;;;;;;10515381;28;20068;-57
2024/03/04 15:02:41;;;;;;;7.75;2.30;;;22.40;84.80;;;;;;10504916;28;20117;-59
2024/03/04 15:07:44;;;;;;;3.63;1.90;;;22.70;99.90;;;;;;10510003;28;20506;-59
2024/03/04 15:12:46;;;;;;;3.88;2.10;;;22.60;97.40;;;;;;10507923;28;20861;-59
2024/03/04 15:17:49;;;;;;;4.10;1.60;;;22.30;99.90;;;;;;10506302;28;20966;-57
2024/03/04 15:22:53;;;;;;;3.10;2.00;;;22.70;99.90;;;;;;10501863;28;20055;-58
2024/03/04 15:27:57;;;;;;;5.45;2.33;;;22.70;99.90;;;;;;10502935;28;20710;-59
2024/03/04 15:32:59;;;;;;;3.65;2.28;;;23.20;96.80;;;;;;10506630;28;20064;-58
2024/03/04 15:38:02;;;;;;;;;;;23.70;99.90;;;;;;10500885;28;20479;-57
2024/03/04 15:43:06;;;;;;;6.68;1.95;;;23.60;99.90;;;;;;10513160;28;19928;-59
2024/03/04 15:48:08;;;;;;;;;;;23.70;71.50;;;;;;10506086;28;20514;-57
2024/03/04 15:53:11;;;;;;;5.05;2.20;;;23.90;99.90;;;;;;10502765;28;20923;-58
2024/03/04 15:58:13;;;;;;;2.63;1.50;;;24.20;99.90;;;;;;10497297;28;21066;-56
2024/03/04 16:03:15;;;;;;;;;;;24.40;99.90;;;;;;10502904;28;20048;-57
2024/03/04 16:08:18;;;;;;;2.88;1.40;;;24.30;99.90;;;;;;10511767;28;19978;-56
2024/03/04 16:13:20;;;;;;;3.28;2.15;;;24.10;99.90;;;;;;10504261;28;20059;-55
2024/03/04 16:18:22;;;;;;;7.20;2.35;;;24.20;99.90;;;;;;10506863;28;20051;-57
2024/03/04 16:23:26;;;;;;;3.70;1.80;;;24.20;99.90;;;;;;10498071;28;22756;-57
2024/03/04 16:28:28;;;;;;;4.25;1.85;;;24.10;99.90;;;;;;10502427;28;20183;-57
2024/03/04 16:33:29;;;;;;;;;;;24.10;98.70;;;;;;10507045;28;20071;-57
2024/03/04 16:38:33;;;;;;;2.37;1.70;;;24.00;99.90;;;;;;10511512;28;20098;-57
2024/03/04 16:43:38;;;;;;;6.00;2.05;;;24.00;99.90;;;;;;10507000;28;20048;-58
2024/03/04 16:48:40;;;;;;;3.03;2.00;;;23.90;99.90;;;;;;10503123;28;20056;-55
2024/03/04 16:53:44;;;;;;;;;;;23.80;99.90;;;;;;10507246;28;20048;-55
2024/03/04 16:58:49;;;;;;;3.63;2.08;;;23.70;99.90;;;;;;10499078;28;19928;-59
2024/03/04 17:03:51;;;;;;;5.30;2.75;;;23.60;99.90;;;;;;10501053;28;20861;-56
2024/03/04 17:08:55;;;;;;;4.05;2.03;;;23.40;99.90;;;;;;10507779;28;20218;-55
2024/03/04 17:13:57;;;;;;;3.17;2.33;;;23.30;99.90;;;;;;10506851;28;20047;-55
2024/03/04 17:18:59;;;;;;;4.95;1.85;;;23.10;99.90;;;;;;10505769;28;20582;-57
2024/03/04 17:24:02;;;;;;;5.60;2.63;;;23.00;99.90;;;;;;10511907;28;20072;-57
2024/03/04 17:29:09;;;;;;;5.05;1.67;;;22.80;99.90;;;;;;10520693;28;20075;-56
2024/03/04 17:34:11;;;;;;;4.88;2.67;;;22.60;99.90;;;;;;10509327;28;20051;-55
2024/03/04 17:39:14;;;;;;;6.57;4.63;;;22.50;99.90;;;;;;10516875;28;20054;-55
2024/03/04 17:44:16;;;;;;;8.68;2.60;;;22.30;99.90;;;;;;10517980;28;20166;-58
2024/03/04 17:49:22;;;;;;;8.00;2.83;;;22.20;99.90;;;;;;10510741;28;20663;-55
2024/03/04 17:54:26;;;;;;;3.92;2.13;;;22.00;99.90;;;;;;10524494;28;20166;-55
2024/03/04 17:59:28;;;;;;;9.75;3.72;;;21.80;99.90;;;;;;10518339;28;20051;-55
2024/03/04 18:04:30;;;;;;;;;;;21.60;99.90;;;;;;10518000;28;20048;-56
2024/03/04 18:09:33;;;;;;;6.70;2.83;;;21.50;99.90;;;;;;10518360;28;19924;-57
2024/03/04 18:14:36;;;;;;;11.05;3.42;;;21.30;99.90;;;;;;10517776;28;20060;-60
2024/03/04 18:19:38;;;;;;;6.07;3.60;;;21.30;99.90;;;;;;10515106;28;20462;-59
2024/03/04 18:24:45;;;;;;;6.30;3.88;;;21.30;99.90;;;;;;10510374;28;20055;-53
2024/03/04 18:29:47;;;;;;;5.85;3.97;;;21.40;99.90;;;;;;10521126;28;20045;-60
2024/03/04 18:34:52;;;;;;;4.22;3.00;;;21.10;99.90;;;;;;10514943;28;20506;-53
2024/03/04 18:39:55;;;;;;;10.40;4.47;;;20.90;99.90;;;;;;10512209;28;20592;-59
2024/03/04 18:44:57;;;;;;;5.10;3.70;;;20.30;99.90;;;;;;10508957;28;20145;-57
2024/03/04 18:49:59;;;;;;;9.60;5.53;;;20.00;99.90;;;;;;10517382;28;20834;-59
2024/03/04 18:55:04;;;;;;;6.90;4.70;;;19.70;99.90;;;;;;10513586;28;20943;-56
2024/03/04 19:00:08;;;;;;;6.07;4.30;;;19.40;99.90;;;;;;10520273;28;20642;-59
2024/03/04 19:05:14;;;;;;;9.07;6.53;;;19.30;99.90;;;;;;10520675;28;20513;-59
2024/03/04 19:10:17;;;;;;;12.07;5.57;;;19.00;99.90;;;;;;10514313;28;20098;-59
2024/03/04 19:15:22;;;;;;;9.63;4.90;;;18.80;99.90;;;;;;10513555;28;20445;-57
2024/03/04 19:20:24;;;;;;;7.53;4.03;;;18.60;99.90;;;;;;10515149;28;21115;-56
2024/03/04 19:25:27;;;;;;;8.73;4.90;;;19.00;99.90;;;;;;10521149;28;20051;-56
2024/03/04 19:30:29;;;;;;;10.48;3.90;;;19.20;99.90;;;;;;10513497;28;20091;-60
2024/03/04 19:35:31;;;;;;;5.95;3.58;;;19.10;99.90;;;;;;10514159;28;22547;-60
2024/03/04 19:40:35;;;;;;;7.97;4.20;;;19.10;99.90;;;;;;10509110;28;20048;-57
2024/03/04 19:45:39;;;;;;;10.30;4.88;;;19.10;99.90;;;;;;10509419;28;20074;-59
2024/03/04 19:50:41;;;;;;;12.00;4.65;;;19.00;99.90;;;;;;10501306;28;20055;-60
2024/03/04 19:55:47;;;;;;;7.22;3.92;;;19.00;99.90;;;;;;10507053;28;20054;-58
2024/03/04 20:00:49;;;;;;;9.98;3.72;;;18.90;99.90;;;;;;10505662;28;20175;-57
2024/03/04 20:05:51;;;;;;;7.32;3.40;;;18.90;99.90;;;;;;10508080;28;20139;-58
2024/03/04 20:10:54;;;;;;;10.27;4.50;;;18.90;99.90;;;;;;10506950;28;20075;-57
2024/03/04 20:15:57;;;;;;;6.60;3.33;;;18.70;99.90;;;;;;10497866;28;20143;-59
2024/03/04 20:21:00;;;;;;;9.43;4.28;;;18.70;99.90;;;;;;10499045;28;20121;-61
2024/03/04 20:26:04;;;;;;;7.38;4.13;;;19.00;99.90;;;;;;10504282;28;21320;-59
2024/03/04 20:31:06;;;;;;;9.38;4.10;;;18.60;99.90;;;;;;10506932;28;20171;-59
2024/03/04 20:36:10;;;;;;;9.73;4.45;;;18.60;99.90;;;;;;10513197;28;20048;-59
2024/03/04 20:41:14;;;;;;;12.00;5.00;;;18.50;99.90;;;;;;10503802;28;20048;-58
2024/03/04 20:46:16;;;;;;;8.70;5.13;;;18.50;99.90;;;;;;10515381;28;20090;-60
2024/03/04 20:51:18;;;;;;;;;;;18.30;99.90;;;;;;10508032;28;20040;-58
2024/03/04 20:56:21;;;;;;;12.25;4.22;;;18.30;99.90;;;;;;10506345;28;19935;-59
2024/03/04 21:01:23;;;;;;;10.23;4.97;;;18.30;99.90;;;;;;10520573;28;20039;-58
2024/03/04 21:06:26;;;;;;;8.50;4.43;;;18.20;99.90;;;;;;10505215;28;20379;-58
2024/03/04 21:11:30;;;;;;;8.25;4.22;;;18.20;99.90;;;;;;10507228;28;20605;-59
2024/03/04 21:16:34;;;;;;;13.98;5.40;;;18.30;99.90;;;;;;10512040;28;20888;-60
2024/03/04 21:21:36;;;;;;;12.30;5.05;;;18.10;99.90;;;;;;10518508;28;20055;-59
2024/03/04 21:26:39;;;;;;;13.70;4.78;;;18.20;99.90;;;;;;10509957;28;20044;-59
2024/03/04 21:31:41;;;;;;;11.88;4.53;;;18.20;99.90;;;;;;10515994;28;20757;-59
2024/03/04 21:36:43;;;;;;;6.85;4.57;;;18.10;99.90;;;;;;10520296;28;20785;-59
2024/03/04 21:41:46;;;;;;;9.60;4.47;;;18.10;99.90;;;;;;10514152;28;20056;-60
2024/03/04 21:46:49;;;;;;;10.52;4.18;;;18.10;99.90;;;;;;10519004;28;20051;-59
2024/03/04 21:51:51;;;;;;;11.25;4.30;;;18.00;99.90;;;;;;10517425;28;20055;-59
2024/03/04 21:56:55;;;;;;;11.43;4.35;;;18.10;99.90;;;;;;10514897;28;20882;-58
2024/03/04 22:01:57;;;;;;;10.30;3.88;;;17.90;99.90;;;;;;10515203;28;20608;-59
2024/03/04 22:06:59;;;;;;;;;;;17.80;99.90;;;;;;10525258;28;20105;-59
2024/03/04 22:12:02;;;;;;;9.35;4.35;;;17.80;99.90;;;;;;10514315;28;19931;-59
2024/03/04 22:17:05;;;;;;;6.95;4.45;;;17.70;99.90;;;;;;10516661;28;20849;-59
2024/03/04 22:22:07;;;;;;;;;;;17.60;99.90;;;;;;10524029;28;20044;-59
2024/03/04 22:27:11;;;;;;;9.00;3.95;;;17.50;99.90;;;;;;10515325;28;19939;-59
2024/03/04 22:32:13;;;;;;;9.50;4.75;;;17.40;99.90;;;;;;10521969;28;20047;-58
2024/03/04 22:37:16;;;;;;;8.27;4.88;;;17.20;99.90;;;;;;10516791;28;20115;-59
2024/03/04 22:42:19;;;;;;;8.90;4.95;;;17.10;99.90;;;;;;10518047;28;20403;-59
2024/03/04 22:47:21;;;;;;;11.90;5.03;;;17.10;99.90;;;;;;10522765;28;20047;-59
2024/03/04 22:52:23;;;;;;;6.88;4.20;;;17.10;99.90;;;;;;10522232;28;20562;-60
2024/03/04 22:57:26;;;;;;;5.68;3.85;;;17.10;99.90;;;;;;10498161;28;20480;-58
2024/03/04 23:02:28;;;;;;;7.60;3.95;;;17.10;99.90;;;;;;10517762;28;20088;-59
2024/03/04 23:07:30;;;;;;;7.53;3.67;;;17.00;99.90;;;;;;10516619;28;20050;-59
2024/03/04 23:12:33;;;;;;;9.03;4.53;;;17.00;99.90;;;;;;10510159;28;20489;-59
2024/03/04 23:17:35;;;;;;;10.90;4.65;;;16.90;99.90;;;;;;10515648;28;20063;-59
2024/03/04 23:22:37;;;;;;;9.18;3.85;;;16.80;99.90;;;;;;10512155;28;20165;-59
2024/03/04 23:27:41;;;;;;;9.40;5.90;;;16.70;99.90;;;;;;10514656;28;20059;-61
2024/03/04 23:32:44;;;;;;;7.35;4.70;;;16.60;99.90;;;;;;10516826;28;20058;-58
2024/03/04 23:37:46;;;;;;;6.95;4.25;;;16.50;99.90;;;;;;10515293;28;21250;-60
2024/03/04 23:42:49;;;;;;;7.17;3.87;;;16.50;99.90;;;;;;10514707;28;20048;-58
2024/03/04 23:47:53;;;;;;;6.97;4.28;;;16.50;99.90;;;;;;10519722;28;20067;-59
2024/03/04 23:52:55;;;;;;;6.55;4.60;;;16.40;99.90;;;;;;10515963;28;20062;-59
2024/03/04 23:57:59;;;;;;;8.27;4.40;;;16.40;99.90;;;;;;10508444;28;20082;-59
